Indian Wells, Arizona
Current Conditions -  °F | °C
As of 9:56 PM on Thursday 27 Nov 2014 (Local Time) from KINW Reporting Station
Clear Clear  
Wind Chill: 36°   Ceiling: Unl
Heat Index: 36°   Visibility: 10mi
Dew Point: 13°   Wind: 0mph
Humidity: 39%   Direction: NA
Pressure: 30.3"   Gusts: NA
Location:  35.41°N, 110.09°W
Report Text: KINW 280456Z AUTO 00000KT 10SM CLR 02/M11 A3030 RMK AO2 SLP261 T00221106
Loading
Personal Weather Stations






























Interactive Weather Map New forecast layout! Learn more

10-Day Weather Forecast

Advertisements
Track Severe Weather on mobile